Time;durP1;ratioP1;P1;durP2;ratioP2;P2;SDS_P1;SDS_P2;PMS_P1;PMS_P2;Temp;Humidity;BMP_temperature;BMP_pressure;BME280_temperature;BME280_humidity;BME280_pressure;Samples;Min_cycle;Max_cycle;Signal;HPM_P1;HPM_P2
2021/04/13 00:01:23;;;;;;;39.25;27.87;;;;;;;9.59;73.71;100167.05;1757416;78;21160;-48
2021/04/13 00:04:15;;;;;;;46.55;27.75;;;;;;;9.65;73.73;100168.14;1779121;78;23458;-50
2021/04/13 00:09:30;;;;;;;40.10;26.33;;;;;;;9.66;73.79;100168.08;1746294;78;22056;-47
2021/04/13 00:12:06;;;;;;;43.95;28.02;;;;;;;9.59;73.82;100168.39;1717566;81;20939;-49
2021/04/13 00:14:50;;;;;;;38.88;27.22;;;;;;;9.62;73.92;100165.56;1821445;76;22766;-48
2021/04/13 00:17:23;;;;;;;42.67;28.42;;;;;;;9.57;74.01;100167.55;1722320;80;21415;-47
2021/04/13 00:20:02;;;;;;;41.02;27.22;;;;;;;9.55;74.02;100172.13;1702266;81;24732;-48
2021/04/13 00:22:32;;;;;;;48.13;29.50;;;;;;;9.57;74.03;100171.59;1711184;81;21724;-48
2021/04/13 00:25:02;;;;;;;42.38;27.62;;;;;;;9.58;74.04;100171.99;1699003;81;21111;-50
2021/04/13 00:27:31;;;;;;;41.30;27.00;;;;;;;9.57;74.05;100171.59;1708830;81;21561;-47
2021/04/13 00:30:11;;;;;;;45.23;28.12;;;;;;;9.58;74.10;100177.38;1708240;81;21530;-48
2021/04/13 00:32:42;;;;;;;40.50;27.27;;;;;;;9.59;74.02;100180.50;1709695;81;21151;-48
2021/04/13 00:37:39;;;;;;;46.90;29.07;;;;;;;9.57;74.28;100178.32;1664223;81;21554;-47
2021/04/13 00:40:29;;;;;;;46.33;29.60;;;;;;;9.56;74.33;100180.61;1760858;79;21105;-48
2021/04/13 00:43:04;;;;;;;42.43;28.45;;;;;;;9.56;74.36;100181.96;1762040;79;20971;-48
2021/04/13 00:45:36;;;;;;;48.92;30.52;;;;;;;9.55;74.50;100183.78;1758329;79;22051;-49
2021/04/13 00:48:04;;;;;;;43.23;30.40;;;;;;;9.53;74.53;100179.37;1736732;79;21571;-43
2021/04/13 00:50:42;;;;;;;46.35;30.52;;;;;;;9.52;74.57;100180.31;1732630;79;21018;-43
2021/04/13 00:53:14;;;;;;;50.65;33.13;;;;;;;9.51;74.64;100179.91;1732223;80;21129;-43
2021/04/13 00:55:52;;;;;;;51.33;32.05;;;;;;;9.51;74.68;100182.61;1731173;79;20974;-44
2021/04/13 00:58:30;;;;;;;48.48;31.97;;;;;;;9.49;74.78;100175.07;1760271;79;21407;-42
2021/04/13 01:01:02;;;;;;;47.40;32.28;;;;;;;9.49;74.90;100168.34;1758846;79;21200;-42
2021/04/13 01:03:31;;;;;;;51.15;33.85;;;;;;;9.48;74.87;100171.50;1760363;79;21035;-43
2021/04/13 01:06:00;;;;;;;55.17;34.15;;;;;;;9.47;74.92;100168.84;1760874;79;20947;-41
2021/04/13 01:08:37;;;;;;;48.58;31.73;;;;;;;9.45;74.93;100164.41;1768593;79;21673;-44
2021/04/13 01:11:23;;;;;;;51.95;32.88;;;;;;;9.44;75.05;100173.42;1762369;79;21360;-46
2021/04/13 01:13:55;;;;;;;57.00;36.03;;;;;;;9.45;75.11;100176.52;1768383;78;21006;-44
2021/04/13 01:16:27;;;;;;;52.80;35.95;;;;;;;9.42;75.17;100169.89;1764100;78;21054;-44
2021/04/13 01:19:05;;;;;;;58.42;36.63;;;;;;;9.39;75.32;100167.34;1763598;78;21019;-44
2021/04/13 01:21:52;;;;;;;49.08;33.63;;;;;;;9.37;75.47;100160.24;1745516;78;21108;-44
2021/04/13 01:24:29;;;;;;;54.98;34.40;;;;;;;9.34;75.57;100157.22;1765113;78;21358;-43
2021/04/13 01:26:56;;;;;;;47.93;32.98;;;;;;;9.32;75.70;100160.45;1758448;79;21038;-51
2021/04/13 01:29:28;;;;;;;47.30;33.45;;;;;;;9.31;75.89;100162.70;1763774;78;21006;-54
2021/04/13 01:31:59;;;;;;;47.88;33.20;;;;;;;9.29;75.89;100156.98;1758174;78;22158;-51
2021/04/13 01:34:43;;;;;;;54.75;32.50;;;;;;;9.28;75.95;100161.50;1765381;78;21177;-51
2021/04/13 01:40:18;;;;;;;53.78;32.50;;;;;;;9.34;76.07;100161.26;1805989;76;22668;-52
2021/04/13 01:42:47;;;;;;;51.63;33.18;;;;;;;9.27;76.18;100157.06;1803775;77;20986;-50
2021/04/13 01:45:20;;;;;;;49.90;31.12;;;;;;;9.25;76.28;100154.88;1771061;79;22286;-51
2021/04/13 01:47:48;;;;;;;52.00;34.38;;;;;;;9.25;76.37;100153.53;1801674;77;21005;-52
2021/04/13 01:50:28;;;;;;;54.30;34.40;;;;;;;9.25;76.40;100147.27;1803678;79;20990;-51
2021/04/13 01:53:16;;;;;;;55.40;33.38;;;;;;;9.23;76.54;100147.34;1804035;77;20966;-51
2021/04/13 01:55:53;;;;;;;60.67;35.63;;;;;;;9.21;76.69;100151.88;1805377;77;20951;-51
2021/04/13 01:58:48;;;;;;;55.83;35.00;;;;;;;9.19;76.80;100149.27;1804948;77;21413;-51
2021/04/13 02:01:33;;;;;;;51.42;34.10;;;;;;;9.20;76.92;100150.13;1803987;78;21041;-51
2021/04/13 02:04:22;;;;;;;57.33;33.73;;;;;;;9.18;76.99;100152.89;1805078;77;20974;-51
2021/04/13 02:07:22;;;;;;;50.85;32.75;;;;;;;9.19;77.12;100154.64;1773475;77;20992;-51
2021/04/13 02:09:50;;;;;;;49.25;32.65;;;;;;;9.19;77.17;100159.16;1804862;77;21010;-51
2021/04/13 02:12:19;;;;;;;52.15;33.70;;;;;;;9.19;77.37;100159.16;1802649;77;21375;-52
2021/04/13 02:14:51;;;;;;;;;;;;;;;9.19;77.42;100157.80;1806641;78;21045;-52
2021/04/13 02:17:29;;;;;;;54.27;35.20;;;;;;;9.19;77.51;100157.80;1803433;77;20291;-52
2021/04/13 02:19:59;;;;;;;55.35;36.00;;;;;;;9.18;77.58;100153.37;1801973;77;21110;-51
2021/04/13 02:22:27;;;;;;;54.90;35.80;;;;;;;9.18;77.67;100147.52;1804074;77;21128;-51
2021/04/13 02:24:58;;;;;;;58.68;36.53;;;;;;;9.18;77.76;100142.60;1804243;77;22244;-50
2021/04/13 02:27:29;;;;;;;55.00;36.20;;;;;;;9.19;77.82;100147.04;1806068;77;21121;-52
2021/04/13 02:30:07;;;;;;;56.60;34.67;;;;;;;9.20;77.85;100136.68;1774590;79;21127;-51
2021/04/13 02:32:42;;;;;;;58.33;35.98;;;;;;;9.18;77.89;100135.87;1803744;78;21101;-52
2021/04/13 02:35:22;;;;;;;74.60;39.73;;;;;;;9.18;78.03;100138.56;1772063;79;20974;-53
2021/04/13 02:37:53;;;;;;;65.00;38.63;;;;;;;9.16;78.09;100137.72;1803046;78;21352;-46
2021/04/13 02:40:38;;;;;;;68.62;38.92;;;;;;;9.14;78.18;100142.30;1791960;77;21018;-46
2021/04/13 02:43:10;;;;;;;74.05;38.55;;;;;;;9.12;78.27;100144.19;1792577;78;21117;-47
2021/04/13 02:45:50;;;;;;;69.80;39.00;;;;;;;9.12;78.40;100142.84;1793681;78;21077;-47
2021/04/13 02:48:32;;;;;;;63.85;37.45;;;;;;;9.10;78.48;100143.34;1794949;78;21963;-48
2021/04/13 02:51:04;;;;;;;73.33;39.25;;;;;;;9.09;78.59;100137.09;1793554;78;21174;-47
2021/04/13 02:53:47;;;;;;;70.03;37.93;;;;;;;9.11;78.66;100145.13;1794043;78;21087;-47
2021/04/13 02:56:36;;;;;;;66.35;39.23;;;;;;;9.10;78.67;100133.92;1794287;78;21092;-45
2021/04/13 02:59:16;;;;;;;62.48;35.60;;;;;;;9.10;78.77;100132.58;1791104;78;21121;-45
2021/04/13 03:02:02;;;;;;;61.70;37.58;;;;;;;9.10;78.80;100128.08;1792458;78;21490;-47
2021/04/13 03:04:30;;;;;;;63.38;35.75;;;;;;;9.13;78.82;100133.83;1791658;78;22325;-46
2021/04/13 03:06:58;;;;;;;69.17;39.30;;;;;;;9.13;78.88;100136.05;1769469;79;21173;-47
2021/04/13 03:09:27;;;;;;;63.02;37.80;;;;;;;9.12;78.94;100137.45;1793851;78;21551;-46
2021/04/13 03:11:59;;;;;;;59.00;37.38;;;;;;;9.11;79.05;100137.05;1771216;79;21342;-46
2021/04/13 03:14:29;;;;;;;67.03;39.00;;;;;;;9.09;79.11;100142.47;1791469;78;21141;-47
2021/04/13 03:16:57;;;;;;;67.10;39.50;;;;;;;9.10;79.21;100137.97;1793427;78;22313;-48
2021/04/13 03:19:26;;;;;;;59.35;38.13;;;;;;;9.07;79.30;100144.83;1792355;78;20978;-46
2021/04/13 03:22:03;;;;;;;64.45;41.18;;;;;;;9.07;79.43;100141.66;1793161;78;21479;-47
2021/04/13 03:24:40;;;;;;;66.37;39.78;;;;;;;9.06;79.54;100147.11;1793092;78;20994;-47
2021/04/13 03:27:13;;;;;;;65.72;39.85;;;;;;;9.05;79.65;100143.98;1791799;78;20951;-46
2021/04/13 03:30:03;;;;;;;58.13;36.75;;;;;;;9.04;79.76;100148.97;1793522;78;22096;-47
2021/04/13 03:32:34;;;;;;;59.00;37.17;;;;;;;9.05;79.82;100143.98;1791188;78;21109;-45
2021/04/13 03:35:03;;;;;;;58.87;37.80;;;;;;;9.04;79.96;100136.39;1773164;79;21117;-46
2021/04/13 03:37:31;;;;;;;65.67;38.70;;;;;;;9.06;80.02;100130.97;1770374;78;21132;-45
2021/04/13 03:40:05;;;;;;;64.27;37.35;;;;;;;9.07;80.11;100137.62;1793092;77;21109;-46
2021/04/13 03:42:41;;;;;;;59.90;37.80;;;;;;;9.06;80.27;100136.34;1796466;76;23442;-47
2021/04/13 03:45:12;;;;;;;60.55;36.63;;;;;;;9.06;80.27;100136.34;1782462;79;21434;-47
2021/04/13 03:47:40;;;;;;;60.67;37.28;;;;;;;9.08;80.38;100139.84;1751725;79;21369;-46
2021/04/13 03:50:12;;;;;;;57.23;38.98;;;;;;;9.10;80.44;100151.41;1782004;79;21013;-49
2021/04/13 03:52:40;;;;;;;64.95;39.63;;;;;;;9.11;80.49;100145.13;1782568;79;20993;-50
2021/04/13 03:55:20;;;;;;;70.55;41.02;;;;;;;9.11;80.53;100159.45;1783993;79;21549;-48
2021/04/13 03:57:56;;;;;;;71.67;42.38;;;;;;;9.17;80.64;100150.27;1795067;76;22794;-48
2021/04/13 04:00:27;;;;;;;68.83;42.00;;;;;;;9.14;80.64;100159.80;1760658;79;21045;-49
2021/04/13 04:02:55;;;;;;;65.32;41.58;;;;;;;9.14;80.62;100150.38;1765522;79;21384;-49
2021/04/13 04:05:25;;;;;;;68.55;41.98;;;;;;;9.15;80.66;100154.81;1725698;79;21344;-49
2021/04/13 04:07:57;;;;;;;68.72;42.20;;;;;;;9.15;80.63;100158.84;1763448;79;21004;-50
2021/04/13 04:10:48;;;;;;;70.32;43.10;;;;;;;9.16;80.69;100153.88;1761204;79;20970;-53
2021/04/13 04:13:23;;;;;;;72.42;41.92;;;;;;;9.16;80.75;100160.16;1757693;79;20978;-50
2021/04/13 04:16:10;;;;;;;63.80;39.63;;;;;;;9.18;80.81;100159.63;1758277;79;21450;-50
2021/04/13 04:18:44;;;;;;;69.67;41.45;;;;;;;9.20;80.83;100155.52;1755824;79;21577;-50
2021/04/13 04:21:23;;;;;;;69.60;39.80;;;;;;;9.23;80.84;100154.54;1756762;79;21013;-53
2021/04/13 04:24:32;;;;;;;65.00;37.88;;;;;;;9.25;80.85;100161.60;1760152;79;20970;-49
2021/04/13 04:27:34;;;;;;;64.60;38.42;;;;;;;9.28;80.86;100160.62;1756505;79;21561;-50
2021/04/13 04:30:10;;;;;;;59.75;38.55;;;;;;;9.30;80.87;100165.00;1760117;79;22285;-50
2021/04/13 04:32:46;;;;;;;66.75;41.10;;;;;;;9.37;80.93;100165.63;1793792;76;22886;-51
2021/04/13 04:35:42;;;;;;;66.60;40.12;;;;;;;9.32;80.94;100168.53;1762113;79;21561;-51
2021/04/13 04:38:31;;;;;;;66.72;40.78;;;;;;;9.36;80.93;100162.06;1776551;78;22970;-44
2021/04/13 04:41:06;;;;;;;61.33;39.50;;;;;;;9.33;80.97;100163.55;1707563;83;21014;-44
2021/04/13 04:43:58;;;;;;;64.60;39.45;;;;;;;9.34;81.01;100163.95;1728726;81;21453;-44
2021/04/13 04:46:38;;;;;;;64.25;37.95;;;;;;;9.36;80.96;100163.41;1771990;79;21018;-44
2021/04/13 04:49:12;;;;;;;58.40;36.13;;;;;;;9.39;81.00;100163.30;1772404;80;20982;-43
2021/04/13 04:51:53;;;;;;;53.58;37.05;;;;;;;9.44;81.03;100159.97;1802099;77;22711;-48
2021/04/13 04:54:21;;;;;;;62.60;37.25;;;;;;;9.40;81.02;100155.63;1764674;79;21600;-45
2021/04/13 04:56:49;;;;;;;52.45;36.28;;;;;;;9.42;80.97;100152.87;1762482;79;21295;-48
2021/04/13 04:59:18;;;;;;;63.68;37.58;;;;;;;9.42;80.97;100153.75;1762181;79;21044;-45
2021/04/13 05:01:47;;;;;;;59.73;38.50;;;;;;;9.42;80.93;100155.56;1765267;79;21641;-44
2021/04/13 05:04:15;;;;;;;64.10;36.98;;;;;;;9.42;80.94;100152.40;1760276;79;21033;-42
2021/04/13 05:06:44;;;;;;;62.75;37.23;;;;;;;9.40;80.98;100153.41;1762967;79;20974;-46
2021/04/13 05:09:12;;;;;;;64.67;37.23;;;;;;;9.41;81.01;100153.34;1760294;79;22280;-44
2021/04/13 05:11:41;;;;;;;57.55;35.90;;;;;;;9.42;81.09;100151.05;1759099;79;21057;-44
2021/04/13 05:14:11;;;;;;;59.83;35.85;;;;;;;9.42;81.17;100149.70;1728758;80;21057;-42
2021/04/13 05:16:39;;;;;;;57.15;35.58;;;;;;;9.44;81.27;100155.93;1757591;79;21123;-44
2021/04/13 05:19:07;;;;;;;58.90;36.60;;;;;;;9.44;81.39;100154.58;1762587;79;21668;-46
2021/04/13 05:21:35;;;;;;;63.65;40.75;;;;;;;9.43;81.40;100144.76;1761483;79;22237;-45
2021/04/13 05:24:06;;;;;;;55.35;35.48;;;;;;;9.43;81.43;100151.48;1762972;79;21006;-44
2021/04/13 05:26:35;;;;;;;58.15;34.35;;;;;;;9.42;81.53;100148.36;1754771;79;21121;-43
2021/04/13 05:29:05;;;;;;;67.82;36.10;;;;;;;9.41;81.60;100149.30;1764114;79;21148;-44
2021/04/13 05:31:36;;;;;;;58.13;37.80;;;;;;;9.39;81.68;100151.19;1762156;79;21427;-42
2021/04/13 05:34:05;;;;;;;67.58;40.95;;;;;;;9.39;81.75;100151.19;1762883;79;22342;-45
2021/04/13 05:36:33;;;;;;;69.32;41.28;;;;;;;9.39;81.79;100144.46;1755510;79;21009;-44
2021/04/13 05:39:02;;;;;;;66.00;38.30;;;;;;;9.39;81.83;100143.11;1753718;79;21010;-45
2021/04/13 05:41:32;;;;;;;61.35;37.50;;;;;;;9.38;81.88;100138.67;1757147;79;21587;-46
2021/04/13 05:44:03;;;;;;;65.50;39.95;;;;;;;9.38;81.99;100138.67;1753172;79;20970;-44
2021/04/13 05:46:32;;;;;;;72.27;39.60;;;;;;;9.37;81.96;100131.52;1759165;79;21374;-50
2021/04/13 05:49:01;;;;;;;67.67;37.50;;;;;;;9.38;81.94;100135.11;1720581;79;21594;-49
2021/04/13 05:51:29;;;;;;;64.60;39.18;;;;;;;9.40;81.99;100135.91;1760711;79;21005;-50
2021/04/13 05:53:57;;;;;;;72.53;39.78;;;;;;;9.40;81.99;100135.44;1756149;79;21162;-51
2021/04/13 05:56:31;;;;;;;70.78;39.27;;;;;;;9.41;82.10;100130.46;1758540;79;20986;-50
2021/04/13 05:58:59;;;;;;;73.87;42.93;;;;;;;9.41;82.10;100130.46;1765372;78;21494;-51
2021/04/13 06:01:28;;;;;;;85.85;50.38;;;;;;;9.44;82.06;100135.73;1762950;79;21152;-50
2021/04/13 06:03:57;;;;;;;70.12;42.33;;;;;;;9.48;82.02;100135.59;1760206;79;21022;-51
2021/04/13 06:06:25;;;;;;;75.45;41.05;;;;;;;9.49;81.88;100134.69;1766141;79;21116;-49
2021/04/13 06:08:53;;;;;;;67.03;41.33;;;;;;;9.51;81.89;100143.56;1759134;78;20966;-52
2021/04/13 06:11:28;;;;;;;78.60;40.60;;;;;;;9.51;81.89;100143.56;1765245;79;21396;-55
2021/04/13 06:13:57;;;;;;;71.15;41.23;;;;;;;9.53;82.07;100137.17;1763010;79;20998;-50
2021/04/13 06:16:31;;;;;;;74.55;41.80;;;;;;;9.56;82.30;100136.19;1756139;78;21005;-52
2021/04/13 06:18:55;;;;;;;71.72;42.88;;;;;;;9.59;82.49;100142.81;1760049;78;21137;-50
2021/04/13 06:21:24;;;;;;;80.72;45.75;;;;;;;9.60;82.73;100137.35;1762944;79;21129;-52
2021/04/13 06:23:52;;;;;;;73.02;43.20;;;;;;;9.64;82.83;100142.13;1766073;78;22526;-52
2021/04/13 06:26:21;;;;;;;76.70;44.53;;;;;;;9.69;82.95;100138.78;1761047;78;21223;-51
2021/04/13 06:28:50;;;;;;;69.32;42.43;;;;;;;9.74;83.03;100146.20;1761288;79;21192;-51
2021/04/13 06:31:18;;;;;;;69.15;41.58;;;;;;;9.77;83.20;100146.09;1762417;78;21685;-52
2021/04/13 06:33:46;;;;;;;59.45;39.75;;;;;;;9.80;83.45;100144.63;1765374;78;20962;-52
2021/04/13 06:36:16;;;;;;;65.65;40.50;;;;;;;9.82;83.82;100138.70;1757790;79;22201;-53
2021/04/13 06:38:45;;;;;;;67.58;40.55;;;;;;;9.83;84.00;100145.84;1753604;79;21573;-51
2021/04/13 06:41:51;;;;;;;66.02;38.05;;;;;;;9.87;84.08;100143.91;1760659;79;21159;-52
2021/04/13 06:44:30;;;;;;;75.42;38.75;;;;;;;9.89;84.21;100142.89;1759323;79;21626;-51
2021/04/13 06:47:40;;;;;;;85.40;40.75;;;;;;;9.91;84.72;100146.41;1757099;79;21536;-49
2021/04/13 06:50:49;;;;;;;67.10;36.55;;;;;;;9.90;85.04;100147.33;1758355;79;21474;-51
2021/04/13 06:53:32;;;;;;;72.32;40.00;;;;;;;9.90;85.38;100143.29;1752037;79;21160;-52
2021/04/13 06:56:20;;;;;;;70.87;38.38;;;;;;;9.89;85.68;100145.58;1751953;79;21740;-52
2021/04/13 06:59:31;;;;;;;58.75;36.05;;;;;;;9.92;85.84;100152.20;1743676;79;21038;-54
2021/04/13 07:02:00;;;;;;;66.82;37.45;;;;;;;9.93;86.12;100149.91;1750090;79;21115;-51
2021/04/13 07:05:03;;;;;;;63.17;37.17;;;;;;;9.97;86.30;100151.55;1751041;79;21356;-51
2021/04/13 07:07:57;;;;;;;61.88;38.28;;;;;;;9.97;86.30;100151.55;1751547;79;21578;-51
2021/04/13 07:10:32;;;;;;;64.77;36.35;;;;;;;9.97;86.66;100151.55;1749636;79;21744;-51
2021/04/13 07:13:17;;;;;;;58.52;38.28;;;;;;;9.98;86.72;100153.30;1754452;79;21161;-54
2021/04/13 07:16:10;;;;;;;63.35;37.95;;;;;;;10.00;86.92;100148.30;1751427;79;20983;-54
2021/04/13 07:19:07;;;;;;;58.00;35.70;;;;;;;10.00;86.70;100149.66;1752431;79;21152;-52
2021/04/13 07:22:04;;;;;;;55.73;36.63;;;;;;;10.05;86.65;100155.73;1748163;79;21153;-52
2021/04/13 07:25:01;;;;;;;61.77;38.98;;;;;;;10.11;86.87;100152.77;1819967;77;22783;-52
2021/04/13 07:27:55;;;;;;;61.98;36.48;;;;;;;10.10;86.94;100151.03;1761003;78;21043;-51
2021/04/13 07:30:36;;;;;;;61.15;37.25;;;;;;;10.17;86.80;100155.20;1746496;79;21216;-52
2021/04/13 07:33:19;;;;;;;62.15;35.38;;;;;;;10.28;86.56;100153.00;1821158;75;23284;-54
2021/04/13 07:35:49;;;;;;;53.68;34.80;;;;;;;10.28;86.40;100161.08;1788201;77;20974;-54
2021/04/13 07:38:29;;;;;;;64.85;38.48;;;;;;;10.33;86.10;100160.86;1791458;78;21378;-53
2021/04/13 07:41:14;;;;;;;59.88;36.00;;;;;;;10.35;85.89;100157.65;1751596;78;21279;-53
2021/04/13 07:43:49;;;;;;;58.38;36.70;;;;;;;10.41;85.71;100161.42;1743826;79;21131;-53
2021/04/13 07:46:48;;;;;;;60.90;37.42;;;;;;;10.44;85.48;100164.88;1744851;79;21455;-54
2021/04/13 07:49:37;;;;;;;63.48;39.95;;;;;;;10.49;85.49;100166.91;1746365;79;21620;-53
2021/04/13 07:52:41;;;;;;;78.12;47.00;;;;;;;10.54;85.13;100165.33;1747535;79;21423;-52
2021/04/13 07:55:37;;;;;;;68.35;40.40;;;;;;;10.60;84.95;100173.63;1749448;81;21703;-52
2021/04/13 07:58:26;;;;;;;74.17;40.48;;;;;;;10.62;84.68;100154.22;1747440;79;21024;-53
2021/04/13 08:00:55;;;;;;;66.53;40.45;;;;;;;10.67;84.49;100162.98;1746122;79;21068;-52
2021/04/13 08:03:29;;;;;;;62.23;38.10;;;;;;;10.70;84.38;100160.14;1720134;79;21155;-53
2021/04/13 08:06:23;;;;;;;68.55;40.43;;;;;;;10.72;84.34;100160.97;1747080;79;22264;-53
2021/04/13 08:09:37;;;;;;;66.12;39.75;;;;;;;10.77;84.17;100162.98;1725573;79;21270;-48
2021/04/13 08:12:29;;;;;;;75.45;43.00;;;;;;;10.85;83.96;100156.77;1794251;77;22420;-49
2021/04/13 08:15:16;;;;;;;72.92;43.02;;;;;;;10.80;83.91;100152.05;1752288;79;21581;-49
2021/04/13 08:18:06;;;;;;;67.50;42.78;;;;;;;10.83;83.81;100151.92;1751722;80;21368;-47
2021/04/13 08:20:40;;;;;;;69.62;42.88;;;;;;;10.89;83.75;100150.29;1754701;79;21016;-48
2021/04/13 08:23:13;;;;;;;62.98;41.63;;;;;;;10.95;83.50;100150.01;1755840;80;21007;-49
2021/04/13 08:25:47;;;;;;;64.05;41.98;;;;;;;10.99;83.26;100151.63;1753531;80;21050;-48
2021/04/13 08:28:38;;;;;;;67.17;42.43;;;;;;;11.04;83.00;100143.33;1753877;80;20966;-47
2021/04/13 08:34:41;;;;;;;117.72;46.88;;;;;;;11.11;82.51;100146.61;1754903;80;21059;-47
2021/04/13 08:37:31;;;;;;;85.17;44.05;;;;;;;11.16;82.29;100142.75;1746888;80;21018;-47
2021/04/13 08:40:19;;;;;;;83.60;44.53;;;;;;;11.22;82.00;100137.06;1755038;80;21166;-46
2021/04/13 08:43:25;;;;;;;75.20;46.25;;;;;;;11.25;81.79;100139.63;1752082;79;21035;-48
2021/04/13 08:46:09;;;;;;;64.60;42.75;;;;;;;11.29;81.57;100137.64;1751546;80;21337;-47
2021/04/13 08:48:51;;;;;;;69.00;42.13;;;;;;;11.32;81.24;100137.52;1750996;80;21192;-47
2021/04/13 08:51:38;;;;;;;70.72;42.70;;;;;;;11.34;80.93;100132.91;1747020;80;21269;-52
2021/04/13 08:54:24;;;;;;;66.65;41.10;;;;;;;11.33;80.74;100131.16;1750535;80;21095;-46
2021/04/13 08:57:02;;;;;;;63.73;40.95;;;;;;;11.37;80.69;100135.47;1749199;80;21497;-47
2021/04/13 08:59:48;;;;;;;65.90;40.95;;;;;;;11.40;80.51;100129.94;1753300;80;21370;-47
2021/04/13 09:02:34;;;;;;;64.87;38.85;;;;;;;11.43;80.42;100133.83;1750811;80;21161;-46
2021/04/13 09:05:14;;;;;;;73.65;39.48;;;;;;;11.46;80.27;100137.74;1750228;80;21134;-46
2021/04/13 09:07:50;;;;;;;78.72;41.20;;;;;;;11.49;80.08;100132.17;1746541;80;21154;-49
2021/04/13 09:10:44;;;;;;;97.10;55.25;;;;;;;11.52;79.94;100133.88;1751565;80;21604;-48
2021/04/13 09:13:26;;;;;;;76.62;43.55;;;;;;;11.54;80.01;100138.23;1740163;80;22255;-47
2021/04/13 09:16:11;;;;;;;66.30;41.68;;;;;;;11.63;79.92;100130.66;1739541;81;21168;-52
2021/04/13 09:18:56;;;;;;;68.22;43.05;;;;;;;11.71;79.60;100129.30;1746175;80;21115;-52
2021/04/13 09:21:44;;;;;;;68.12;40.17;;;;;;;11.77;79.34;100122.72;1739726;80;21020;-54
2021/04/13 09:24:39;;;;;;;67.75;39.42;;;;;;;11.82;79.02;100126.11;1739176;80;21273;-53
2021/04/13 09:27:38;;;;;;;56.08;38.13;;;;;;;11.85;78.80;100115.16;1737211;80;21396;-52
2021/04/13 09:30:25;;;;;;;68.28;39.03;;;;;;;11.92;78.43;100120.66;1817502;76;23010;-52
2021/04/13 09:33:11;;;;;;;64.03;41.70;;;;;;;11.86;78.31;100120.96;1769849;77;20966;-56
2021/04/13 09:36:29;;;;;;;54.93;37.95;;;;;;;11.90;78.30;100118.52;1807860;76;22808;-51
2021/04/13 09:39:33;;;;;;;65.65;38.53;;;;;;;11.85;78.23;100118.34;1747994;79;21132;-53
2021/04/13 09:42:18;;;;;;;60.30;38.15;;;;;;;11.82;78.19;100109.02;1746679;79;22335;-53
2021/04/13 09:45:26;;;;;;;62.58;36.95;;;;;;;11.77;78.20;100115.52;1713740;79;20954;-53
2021/04/13 09:48:34;;;;;;;57.83;36.25;;;;;;;11.79;78.31;100110.03;1748266;79;21565;-53
2021/04/13 09:51:25;;;;;;;61.05;38.75;;;;;;;11.82;78.38;100113.08;1748543;79;21059;-52
2021/04/13 09:54:29;;;;;;;92.60;60.92;;;;;;;11.89;78.25;100112.72;1747293;79;20958;-52
2021/04/13 09:57:34;;;;;;;59.33;39.73;;;;;;;11.92;78.23;100113.89;1752339;79;21481;-52
2021/04/13 10:00:52;;;;;;;66.37;38.23;;;;;;;11.93;78.14;100115.67;1749125;79;21033;-54
2021/04/13 10:03:53;;;;;;;57.53;36.30;;;;;;;11.98;78.07;100113.58;1750145;79;21110;-52
2021/04/13 10:06:36;;;;;;;57.90;36.33;;;;;;;12.00;77.83;100109.00;1751551;79;21093;-52
2021/04/13 10:09:19;;;;;;;51.05;34.50;;;;;;;12.02;77.75;100115.67;1753560;79;21117;-52
2021/04/13 10:12:03;;;;;;;53.83;34.20;;;;;;;12.01;77.67;100110.73;1727847;79;21021;-52
2021/04/13 10:15:01;;;;;;;59.13;35.83;;;;;;;12.01;77.59;100105.33;1758128;79;21641;-52
2021/04/13 10:18:09;;;;;;;63.13;40.00;;;;;;;12.02;77.52;100105.73;1759241;79;21585;-52
2021/04/13 10:21:30;;;;;;;64.05;39.30;;;;;;;12.05;77.49;100104.23;1861742;74;22610;-51
2021/04/13 10:24:15;;;;;;;54.23;37.20;;;;;;;11.97;77.61;100105.08;1820072;77;21024;-51
2021/04/13 10:27:40;;;;;;;64.22;39.55;;;;;;;11.97;77.80;100100.16;1820420;77;21426;-52
2021/04/13 10:30:44;;;;;;;69.80;39.70;;;;;;;12.00;77.90;100103.59;1813370;76;22745;-51
2021/04/13 10:33:27;;;;;;;71.20;40.80;;;;;;;11.93;77.97;100093.14;1817951;77;20993;-53
2021/04/13 12:55:16;;;;;;;58.95;35.23;;;;;;;11.80;78.67;100028.88;1723510;82;22871;-50
2021/04/13 12:57:59;;;;;;;47.98;32.15;;;;;;;11.83;78.43;100030.61;1813481;77;22817;-51
2021/04/13 13:00:34;;;;;;;64.20;40.60;;;;;;;11.79;78.19;100031.67;1747347;80;21147;-52
2021/04/13 13:03:19;;;;;;;56.15;34.88;;;;;;;11.79;78.09;100026.27;1749857;79;21202;-50
2021/04/13 13:05:49;;;;;;;50.95;34.10;;;;;;;11.79;77.96;100028.97;1749247;79;21038;-50
2021/04/13 13:08:24;;;;;;;53.95;31.62;;;;;;;11.78;77.98;100024.52;1751597;79;21017;-50
2021/04/13 13:10:57;;;;;;;51.75;33.33;;;;;;;11.81;77.92;100029.75;1751958;80;21526;-52
2021/04/13 13:13:36;;;;;;;45.55;29.35;;;;;;;11.89;77.80;100019.47;1795392;77;22819;-50
2021/04/13 13:16:15;;;;;;;57.17;33.50;;;;;;;11.81;77.95;100025.70;1758096;79;20990;-49
2021/04/13 13:18:47;;;;;;;50.58;30.05;;;;;;;11.76;78.12;100025.06;1751146;79;21938;-50
2021/04/13 13:21:18;;;;;;;;;;;;;;;11.75;78.48;100021.96;1753087;79;21008;-50
2021/04/13 13:23:56;;;;;;;38.37;25.27;;;;;;;11.70;78.72;100029.42;1751437;79;20173;-50
2021/04/13 13:26:31;;;;;;;39.75;26.57;;;;;;;11.64;79.58;100022.50;1720447;80;21545;-49
2021/04/13 13:28:59;;;;;;;45.05;28.70;;;;;;;11.57;80.26;100022.91;1750384;79;21005;-51
2021/04/13 13:31:34;;;;;;;45.48;28.38;;;;;;;11.46;81.20;100024.31;1751054;79;21272;-50
2021/04/13 13:34:14;;;;;;;45.58;29.18;;;;;;;11.41;82.51;100029.06;1750809;79;20966;-50
2021/04/13 13:36:44;;;;;;;48.58;31.75;;;;;;;11.30;83.68;100028.72;1752073;79;21006;-51
2021/04/13 13:39:26;;;;;;;50.60;31.62;;;;;;;11.20;84.69;100025.58;1751676;79;21652;-51
2021/04/13 13:41:55;;;;;;;55.10;32.38;;;;;;;11.16;85.58;100025.80;1727904;80;21117;-50
2021/04/13 13:44:49;;;;;;;49.63;31.68;;;;;;;11.12;86.64;100021.02;1723222;79;22060;-52
2021/04/13 13:47:38;;;;;;;50.83;33.60;;;;;;;11.10;87.20;100026.10;1749943;79;21033;-51
2021/04/13 13:50:20;;;;;;;55.00;35.20;;;;;;;11.03;88.32;100027.35;1755576;78;21157;-50
2021/04/13 13:52:53;;;;;;;51.92;34.63;;;;;;;10.95;88.69;100027.22;1750406;79;21132;-51
2021/04/13 13:55:37;;;;;;;57.95;36.55;;;;;;;10.91;90.11;100021.56;1750343;79;20993;-50
2021/04/13 13:58:21;;;;;;;55.78;36.30;;;;;;;10.83;90.65;100021.06;1750810;78;21347;-50
2021/04/13 14:01:02;;;;;;;56.85;37.28;;;;;;;10.75;92.89;100024.58;1751655;79;21655;-53
2021/04/13 14:03:47;;;;;;;72.43;39.57;;;;;;;10.75;92.89;100024.58;1752633;79;20950;-50
2021/04/13 14:06:22;;;;;;;66.55;39.78;;;;;;;10.73;93.50;100025.13;1752808;79;21131;-50
2021/04/13 14:08:51;;;;;;;67.15;39.38;;;;;;;10.71;94.13;100024.34;1749159;79;21610;-51
2021/04/13 14:11:30;;;;;;;64.72;40.12;;;;;;;10.69;94.84;100023.52;1753537;79;21172;-51
2021/04/13 14:14:04;;;;;;;68.52;40.43;;;;;;;10.65;94.98;100026.86;1749919;79;21033;-52
2021/04/13 14:16:48;;;;;;;67.90;42.08;;;;;;;10.62;96.19;100024.76;1758289;79;20989;-50
2021/04/13 14:19:33;;;;;;;67.55;43.90;;;;;;;10.59;96.58;100024.89;1755951;79;21005;-51
2021/04/13 14:22:14;;;;;;;63.87;42.20;;;;;;;10.57;96.95;100026.79;1756038;79;20997;-52
2021/04/13 14:25:03;;;;;;;67.85;39.67;;;;;;;10.54;97.76;100026.91;1753516;79;22046;-50
2021/04/13 14:27:31;;;;;;;68.87;44.03;;;;;;;10.54;97.76;100026.91;1754135;79;21041;-50
2021/04/13 14:30:03;;;;;;;68.30;42.62;;;;;;;10.57;97.78;100026.79;1742526;79;22028;-50
2021/04/13 14:32:34;;;;;;;68.50;44.05;;;;;;;10.55;98.16;100017.91;1756839;79;21097;-50
2021/04/13 14:35:05;;;;;;;74.32;44.25;;;;;;;10.55;98.16;100017.91;1748646;79;20977;-52
2021/04/13 14:37:40;;;;;;;69.55;42.13;;;;;;;10.55;98.56;100021.95;1750382;79;21191;-52
2021/04/13 14:40:15;;;;;;;80.38;43.83;;;;;;;10.55;98.56;100021.95;1751893;79;21033;-51
2021/04/13 14:42:45;;;;;;;67.82;42.60;;;;;;;10.57;99.05;100026.79;1749192;79;21167;-50